Time;durP1;ratioP1;P1;durP2;ratioP2;P2;SDS_P1;SDS_P2;PMS_P1;PMS_P2;Temp;Humidity;BMP_temperature;BMP_pressure;BME280_temperature;BME280_humidity;BME280_pressure;Samples;Min_cycle;Max_cycle;Signal;HPM_P1;HPM_P2
2022/06/29 00:01:37;;;;;;;3.28;2.97;;;23.70;58.50;;;;;;5053255;28;20196;-73
2022/06/29 00:04:04;;;;;;;3.20;2.90;;;23.70;58.50;;;;;;5051893;28;20206;-72
2022/06/29 00:06:31;;;;;;;3.30;3.00;;;23.70;58.50;;;;;;5051814;28;20203;-72
2022/06/29 00:08:59;;;;;;;2.83;2.63;;;23.60;58.40;;;;;;5051942;28;20238;-72
2022/06/29 00:11:26;;;;;;;2.85;2.65;;;23.60;58.50;;;;;;5051685;28;20687;-72
2022/06/29 00:13:53;;;;;;;3.00;2.80;;;23.60;58.50;;;;;;5051684;28;20568;-72
2022/06/29 00:16:20;;;;;;;3.28;3.00;;;23.60;58.50;;;;;;5051669;28;20196;-72
2022/06/29 00:18:47;;;;;;;2.92;2.72;;;23.60;58.50;;;;;;5051493;28;20223;-73
2022/06/29 00:21:15;;;;;;;3.05;2.75;;;23.60;58.40;;;;;;5051578;28;20332;-72
2022/06/29 00:23:42;;;;;;;3.20;2.90;;;23.50;58.40;;;;;;5051523;28;20660;-72
2022/06/29 00:26:10;;;;;;;3.17;2.80;;;23.50;58.50;;;;;;5052802;28;20191;-72
2022/06/29 00:28:38;;;;;;;2.97;2.78;;;23.60;58.50;;;;;;5051521;28;20250;-72
2022/06/29 00:31:04;;;;;;;3.28;3.08;;;23.60;58.70;;;;;;5053681;28;20210;-72
2022/06/29 00:33:32;;;;;;;2.97;2.78;;;23.50;58.70;;;;;;5055256;28;20202;-72
2022/06/29 00:35:58;;;;;;;3.30;3.00;;;23.50;58.70;;;;;;5055280;28;20195;-73
2022/06/29 00:38:25;;;;;;;4.13;2.92;;;23.50;58.70;;;;;;5055179;28;20227;-72
2022/06/29 00:40:52;;;;;;;3.00;2.80;;;23.50;58.50;;;;;;5055067;28;20195;-72
2022/06/29 00:43:21;;;;;;;2.90;2.70;;;23.50;58.60;;;;;;5055131;28;20196;-72
2022/06/29 00:45:48;;;;;;;3.00;2.80;;;23.50;58.60;;;;;;5055022;28;20249;-72
2022/06/29 00:48:15;;;;;;;3.10;2.90;;;23.50;58.70;;;;;;5054990;28;20215;-72
2022/06/29 00:50:42;;;;;;;3.03;2.83;;;23.50;58.70;;;;;;5056490;28;20187;-72
2022/06/29 00:53:09;;;;;;;3.92;3.10;;;23.50;58.70;;;;;;5054955;28;20202;-72
2022/06/29 00:55:37;;;;;;;2.90;2.70;;;23.50;58.70;;;;;;5054894;28;20191;-72
2022/06/29 00:58:05;;;;;;;3.13;2.92;;;23.50;58.60;;;;;;5054876;28;20192;-72
2022/06/29 01:00:34;;;;;;;2.97;2.75;;;23.50;58.60;;;;;;5054802;28;20225;-72
2022/06/29 01:09:30;;;;;;;3.08;2.70;;;23.50;58.60;;;;;;5057614;28;20203;-67
2022/06/29 01:11:58;;;;;;;3.35;2.70;;;23.50;58.70;;;;;;5058440;28;20291;-67
2022/06/29 01:14:25;;;;;;;2.85;2.65;;;23.40;58.70;;;;;;5055714;28;20196;-70
2022/06/29 01:16:55;;;;;;;3.30;2.88;;;23.40;58.70;;;;;;5055481;28;20269;-70
2022/06/29 01:19:22;;;;;;;2.72;2.53;;;23.40;58.70;;;;;;5092565;22;20273;-72
2022/06/29 01:21:51;;;;;;;3.17;2.92;;;23.40;58.70;;;;;;5054670;28;20206;-71
2022/06/29 01:24:20;;;;;;;2.83;2.63;;;23.40;58.80;;;;;;5054263;28;20624;-71
2022/06/29 01:26:47;;;;;;;2.60;2.50;;;23.40;58.80;;;;;;5054458;28;20557;-71
2022/06/29 01:29:13;;;;;;;2.88;2.67;;;23.40;58.70;;;;;;5055661;28;20186;-71
2022/06/29 01:31:40;;;;;;;2.80;2.60;;;23.40;58.70;;;;;;5055359;28;20198;-71
2022/06/29 01:34:08;;;;;;;2.85;2.65;;;23.40;58.70;;;;;;5055456;28;20238;-71
2022/06/29 01:36:35;;;;;;;2.90;2.70;;;23.40;58.80;;;;;;5055341;28;20192;-71
2022/06/29 01:39:02;;;;;;;2.90;2.70;;;23.40;58.80;;;;;;5070737;28;20223;-72
2022/06/29 01:41:31;;;;;;;2.97;2.78;;;23.40;58.70;;;;;;5053233;28;20219;-71
2022/06/29 01:43:58;;;;;;;2.80;2.60;;;23.40;58.80;;;;;;5070505;28;20294;-71
2022/06/29 01:46:25;;;;;;;3.30;2.78;;;23.40;58.80;;;;;;5070708;28;20203;-71
2022/06/29 01:48:52;;;;;;;2.97;2.70;;;23.30;58.70;;;;;;5055075;28;20191;-71
2022/06/29 01:51:19;;;;;;;2.90;2.60;;;23.30;58.70;;;;;;5070493;28;20223;-71
2022/06/29 01:53:47;;;;;;;3.10;2.90;;;23.30;58.70;;;;;;5053872;28;20203;-71
2022/06/29 01:56:14;;;;;;;3.22;3.03;;;23.30;59.30;;;;;;5054880;28;20558;-71
2022/06/29 01:58:42;;;;;;;2.90;2.67;;;23.30;58.70;;;;;;5053556;28;20226;-71
2022/06/29 02:01:09;;;;;;;2.80;2.60;;;23.30;58.80;;;;;;5053700;28;20223;-71
2022/06/29 02:03:36;;;;;;;3.17;2.78;;;23.30;58.80;;;;;;5054962;28;20187;-71
2022/06/29 02:06:03;;;;;;;3.00;2.80;;;23.30;58.80;;;;;;5054805;28;20667;-71
2022/06/29 02:08:31;;;;;;;2.88;2.67;;;23.30;58.80;;;;;;5053641;28;20291;-71
2022/06/29 02:13:24;;;;;;;2.75;2.65;;;23.30;58.90;;;;;;5012203;28;20568;-72
2022/06/29 02:15:52;;;;;;;2.90;2.70;;;23.30;58.90;;;;;;5013538;28;20201;-72
2022/06/29 02:18:19;;;;;;;3.05;2.85;;;23.20;58.80;;;;;;5013599;28;20202;-72
2022/06/29 02:20:46;;;;;;;2.88;2.67;;;23.20;58.80;;;;;;5026235;28;20684;-72
2022/06/29 02:23:13;;;;;;;2.90;2.70;;;23.20;58.80;;;;;;5033387;28;20215;-73
2022/06/29 02:25:40;;;;;;;3.95;2.80;;;23.20;58.80;;;;;;5033360;28;20231;-72
2022/06/29 02:28:06;;;;;;;2.67;2.58;;;23.20;58.80;;;;;;5033280;28;20215;-72
2022/06/29 02:36:01;;;;;;;3.13;2.83;;;23.10;58.70;;;;;;5001353;28;20609;-72
2022/06/29 02:38:27;;;;;;;2.97;2.78;;;23.10;58.70;;;;;;5034487;28;20679;-72
2022/06/29 02:40:54;;;;;;;3.10;2.90;;;23.10;58.80;;;;;;5034019;28;20239;-72
2022/06/29 02:43:21;;;;;;;3.10;2.90;;;23.10;58.70;;;;;;5034334;28;20607;-72
2022/06/29 02:45:48;;;;;;;3.10;2.90;;;23.10;58.80;;;;;;5033919;28;20196;-72
2022/06/29 02:48:15;;;;;;;3.00;2.80;;;23.10;58.80;;;;;;5032739;28;20196;-72
2022/06/29 02:50:43;;;;;;;3.08;2.88;;;23.10;58.90;;;;;;5032937;28;20211;-72
2022/06/29 02:53:11;;;;;;;3.03;2.83;;;23.10;58.90;;;;;;5032625;28;20192;-72
2022/06/29 02:55:38;;;;;;;3.38;3.17;;;23.10;59.00;;;;;;5032769;28;20204;-72
2022/06/29 02:58:05;;;;;;;3.00;2.80;;;23.00;58.90;;;;;;5034010;28;20188;-72
2022/06/29 03:00:32;;;;;;;2.70;2.60;;;23.00;58.80;;;;;;5034192;28;20215;-72
2022/06/29 03:02:59;;;;;;;3.50;3.20;;;23.00;59.50;;;;;;5032548;28;20254;-72
2022/06/29 03:05:26;;;;;;;2.85;2.65;;;23.10;58.90;;;;;;5032493;28;20204;-72
2022/06/29 03:07:54;;;;;;;3.20;2.92;;;23.00;59.00;;;;;;5033764;28;20188;-72
2022/06/29 03:10:21;;;;;;;3.50;3.20;;;23.00;59.00;;;;;;5032425;28;20718;-72
2022/06/29 03:12:48;;;;;;;3.05;2.78;;;23.00;59.00;;;;;;5033753;28;20275;-72
2022/06/29 03:15:15;;;;;;;3.28;3.00;;;23.00;58.80;;;;;;5033008;28;20609;-72
2022/06/29 03:17:42;;;;;;;3.25;3.05;;;23.00;58.80;;;;;;5032411;28;20572;-72
2022/06/29 03:20:10;;;;;;;3.25;2.95;;;23.00;58.70;;;;;;5032344;28;20224;-72
2022/06/29 03:22:37;;;;;;;3.47;2.97;;;23.00;58.80;;;;;;5033542;28;20192;-72
2022/06/29 03:25:06;;;;;;;3.58;3.15;;;23.00;59.00;;;;;;5032263;28;20195;-72
2022/06/29 03:27:33;;;;;;;3.00;2.80;;;23.10;59.00;;;;;;5033547;28;20306;-72
2022/06/29 03:30:01;;;;;;;3.22;3.03;;;23.10;58.80;;;;;;5032279;28;20212;-72
2022/06/29 03:32:28;;;;;;;3.20;3.00;;;23.10;58.70;;;;;;5032302;28;20223;-72
2022/06/29 03:34:55;;;;;;;3.20;3.00;;;23.10;58.60;;;;;;5032155;28;20230;-72
2022/06/29 03:37:22;;;;;;;3.22;2.85;;;23.10;58.50;;;;;;5032165;28;20215;-72
2022/06/29 03:39:49;;;;;;;3.60;3.30;;;23.20;58.50;;;;;;5033303;28;20600;-72
2022/06/29 03:42:17;;;;;;;2.75;2.63;;;23.20;58.40;;;;;;5033366;28;20196;-72
2022/06/29 03:44:44;;;;;;;3.30;3.10;;;23.20;58.90;;;;;;5032071;28;20195;-72
2022/06/29 03:47:11;;;;;;;3.30;3.10;;;23.20;58.20;;;;;;5032172;28;20203;-72
2022/06/29 03:49:38;;;;;;;3.47;3.20;;;23.30;58.20;;;;;;5033516;28;20587;-72
2022/06/29 03:52:05;;;;;;;3.13;2.92;;;23.30;58.00;;;;;;5032181;28;20203;-72
2022/06/29 03:54:32;;;;;;;3.03;2.83;;;23.30;58.00;;;;;;5032015;28;20246;-72
2022/06/29 03:56:59;;;;;;;3.03;2.83;;;23.30;58.10;;;;;;5031897;28;20290;-72
2022/06/29 03:59:27;;;;;;;3.42;3.20;;;23.30;57.90;;;;;;5031732;28;20220;-72
2022/06/29 04:01:54;;;;;;;3.33;3.03;;;23.30;57.90;;;;;;5032005;28;20207;-72
2022/06/29 04:04:21;;;;;;;3.40;3.20;;;23.30;57.90;;;;;;5033159;28;20652;-72
2022/06/29 04:06:48;;;;;;;3.90;3.08;;;23.30;57.90;;;;;;5035343;28;20258;-72
2022/06/29 04:09:15;;;;;;;3.30;2.95;;;23.30;57.90;;;;;;5035795;28;20224;-72
2022/06/29 04:11:52;;;;;;;4.07;3.30;;;23.30;57.90;;;;;;5035670;28;20208;-72
2022/06/29 04:14:19;;;;;;;3.30;3.00;;;23.40;58.10;;;;;;5035859;28;20206;-72
2022/06/29 04:16:47;;;;;;;3.17;2.97;;;23.40;58.20;;;;;;5035788;28;20203;-72
2022/06/29 04:19:14;;;;;;;4.07;3.05;;;23.40;58.10;;;;;;5035478;28;20204;-71
2022/06/29 04:21:41;;;;;;;3.03;2.83;;;23.40;58.20;;;;;;5036854;28;20200;-72
2022/06/29 04:24:09;;;;;;;3.30;3.10;;;23.40;58.10;;;;;;5035623;28;20204;-73
2022/06/29 04:26:35;;;;;;;3.20;3.00;;;23.40;58.10;;;;;;5035491;28;20199;-72
2022/06/29 04:29:02;;;;;;;3.20;2.90;;;23.40;58.10;;;;;;5036704;28;20187;-72
2022/06/29 04:31:29;;;;;;;3.40;3.10;;;23.50;58.20;;;;;;5035271;28;20780;-72
2022/06/29 04:33:58;;;;;;;3.15;2.95;;;23.50;58.10;;;;;;5035382;28;20219;-72
2022/06/29 04:36:25;;;;;;;3.50;3.20;;;23.50;58.10;;;;;;5035464;28;20192;-72
2022/06/29 04:38:53;;;;;;;3.33;3.08;;;23.50;58.00;;;;;;5035174;28;20188;-72
2022/06/29 04:41:20;;;;;;;3.42;3.13;;;23.50;57.90;;;;;;5035269;28;20231;-72
2022/06/29 04:43:47;;;;;;;3.60;3.38;;;23.60;58.00;;;;;;5036509;28;20188;-72
2022/06/29 04:46:23;;;;;;;3.22;3.00;;;23.60;58.00;;;;;;5036432;28;20196;-72
2022/06/29 04:48:51;;;;;;;2.92;2.70;;;23.60;58.00;;;;;;5035133;28;20199;-72
2022/06/29 04:51:20;;;;;;;3.17;2.97;;;23.70;58.00;;;;;;5036330;28;20232;-72
2022/06/29 04:53:47;;;;;;;3.22;3.03;;;23.70;57.90;;;;;;5035208;28;20203;-72
2022/06/29 04:56:14;;;;;;;3.10;2.90;;;23.80;57.60;;;;;;5035296;28;20203;-73
2022/06/29 04:58:41;;;;;;;4.07;3.15;;;23.90;57.50;;;;;;5035044;28;20192;-72
2022/06/29 05:01:08;;;;;;;3.10;2.90;;;24.00;57.40;;;;;;5034727;28;20224;-72
2022/06/29 05:03:35;;;;;;;3.20;3.00;;;24.00;57.40;;;;;;5034766;28;20200;-72
2022/06/29 05:06:02;;;;;;;4.38;3.08;;;24.00;57.40;;;;;;5034875;28;20249;-74
2022/06/29 05:08:31;;;;;;;3.35;3.13;;;24.00;57.40;;;;;;5161108;22;20242;-73
2022/06/29 05:13:37;;;;;;;4.35;3.95;;;23.90;57.20;;;;;;4975848;28;20701;-73
2022/06/29 05:16:04;;;;;;;5.03;4.10;;;23.60;58.10;;;;;;4976916;28;20190;-73
2022/06/29 05:18:33;;;;;;;4.07;3.80;;;23.30;58.90;;;;;;4975864;28;20202;-73
2022/06/29 05:21:00;;;;;;;5.00;4.10;;;23.10;59.40;;;;;;4976371;28;20225;-73
2022/06/29 05:23:29;;;;;;;5.10;4.18;;;23.00;59.40;;;;;;4976813;28;20225;-72
2022/06/29 05:25:57;;;;;;;4.20;3.90;;;22.80;60.80;;;;;;5184573;22;20243;-72
2022/06/29 05:28:24;;;;;;;4.45;4.05;;;22.80;60.10;;;;;;5054245;28;20257;-73
2022/06/29 05:30:51;;;;;;;4.43;3.90;;;22.70;60.50;;;;;;5055456;28;20203;-73
2022/06/29 05:33:19;;;;;;;5.90;3.65;;;22.50;61.10;;;;;;5054271;28;20289;-73
2022/06/29 05:35:45;;;;;;;3.78;3.47;;;22.60;61.00;;;;;;5054612;28;20605;-73
2022/06/29 05:40:43;;;;;;;4.90;4.13;;;22.70;59.90;;;;;;5025171;28;20608;-73
2022/06/29 05:43:12;;;;;;;4.72;4.00;;;22.90;59.80;;;;;;5033982;28;20192;-73
2022/06/29 05:45:39;;;;;;;4.45;4.05;;;22.90;59.60;;;;;;5035317;28;20188;-73
2022/06/29 05:48:07;;;;;;;4.40;4.00;;;23.10;59.50;;;;;;5035112;28;20222;-72
2022/06/29 05:50:34;;;;;;;4.60;4.20;;;23.10;59.30;;;;;;5034001;28;20212;-73
2022/06/29 05:53:01;;;;;;;4.20;3.80;;;23.20;59.10;;;;;;5152920;22;20281;-72
2022/06/29 05:55:28;;;;;;;4.68;4.07;;;23.30;59.00;;;;;;5054532;28;20199;-73
2022/06/29 05:57:55;;;;;;;4.85;4.45;;;23.30;58.70;;;;;;5053989;28;20656;-73
2022/06/29 06:00:23;;;;;;;4.28;3.88;;;23.40;58.50;;;;;;5053767;28;20227;-72
2022/06/29 06:02:50;;;;;;;4.97;4.45;;;23.50;58.40;;;;;;5054126;28;20674;-73
2022/06/29 06:05:17;;;;;;;6.25;4.03;;;23.50;58.10;;;;;;5055120;28;20238;-73
2022/06/29 06:07:44;;;;;;;4.25;3.95;;;23.60;58.10;;;;;;5054697;28;20194;-73
2022/06/29 06:10:11;;;;;;;4.07;3.67;;;23.60;57.90;;;;;;5054717;28;20214;-73
2022/06/29 06:12:38;;;;;;;4.25;3.92;;;23.60;57.80;;;;;;5184160;22;20242;-73
2022/06/29 06:15:07;;;;;;;5.18;3.85;;;23.70;57.90;;;;;;5053427;28;20662;-73
2022/06/29 06:17:35;;;;;;;4.55;4.20;;;23.60;57.70;;;;;;5053454;28;20215;-74
2022/06/29 06:20:02;;;;;;;4.07;3.78;;;23.70;57.70;;;;;;5054213;28;20230;-75
2022/06/29 06:22:29;;;;;;;4.30;3.90;;;23.70;57.70;;;;;;5156704;22;20231;-76
2022/06/29 06:24:56;;;;;;;5.20;3.85;;;23.70;57.70;;;;;;5318923;22;20245;-72
2022/06/29 06:27:23;;;;;;;6.05;3.67;;;23.80;57.90;;;;;;5053008;28;20583;-74
2022/06/29 06:29:50;;;;;;;4.35;3.95;;;23.80;57.70;;;;;;5054098;28;20211;-74
2022/06/29 06:32:17;;;;;;;4.13;3.30;;;23.90;57.70;;;;;;5069617;28;20203;-73
2022/06/29 06:34:46;;;;;;;3.97;3.55;;;23.90;57.70;;;;;;5069822;28;20290;-74
2022/06/29 06:37:13;;;;;;;4.28;3.80;;;24.00;57.50;;;;;;5053194;28;20199;-74
2022/06/29 06:41:21;;;;;;;4.25;3.85;;;24.00;57.20;;;;;;5053128;28;20219;-74
2022/06/29 06:42:27;;;;;;;5.28;3.35;;;24.20;57.20;;;;;;5052793;28;20202;-74
2022/06/29 06:44:54;;;;;;;4.03;3.17;;;24.20;57.00;;;;;;5054180;28;20717;-74
2022/06/29 06:47:21;;;;;;;3.60;3.30;;;24.20;56.80;;;;;;5052784;28;20199;-74
2022/06/29 06:49:49;;;;;;;3.92;3.53;;;24.30;56.70;;;;;;5053040;28;20215;-74
2022/06/29 06:52:17;;;;;;;3.97;3.22;;;24.50;56.60;;;;;;5053082;28;20199;-74
2022/06/29 06:54:45;;;;;;;4.43;3.45;;;24.60;56.20;;;;;;5052950;28;20218;-74
2022/06/29 06:57:12;;;;;;;3.90;3.58;;;24.90;55.90;;;;;;5070579;28;20279;-74
2022/06/29 06:59:38;;;;;;;3.60;3.30;;;25.10;55.50;;;;;;5052780;28;20405;-74
2022/06/29 07:02:05;;;;;;;3.40;3.08;;;25.30;54.80;;;;;;5053906;28;20207;-74
2022/06/29 07:04:32;;;;;;;3.92;3.58;;;25.50;54.50;;;;;;5056671;28;20202;-74
2022/06/29 07:07:01;;;;;;;4.03;3.33;;;25.80;54.00;;;;;;5053709;28;20198;-74
2022/06/29 07:09:28;;;;;;;3.50;3.20;;;25.90;53.50;;;;;;5054318;28;20188;-74
2022/06/29 07:11:55;;;;;;;3.88;3.53;;;26.10;53.10;;;;;;5058747;28;20218;-74
2022/06/29 07:14:22;;;;;;;4.10;3.10;;;26.20;52.80;;;;;;5055970;28;20194;-74
2022/06/29 07:16:49;;;;;;;3.30;3.00;;;26.40;52.50;;;;;;5052704;28;20201;-74
2022/06/29 07:19:16;;;;;;;3.20;2.90;;;26.50;52.10;;;;;;5069119;28;20206;-74
2022/06/29 07:21:43;;;;;;;3.35;2.97;;;26.60;51.90;;;;;;5052467;28;20288;-74
2022/06/29 07:24:11;;;;;;;3.25;2.95;;;26.70;51.50;;;;;;5052540;28;20210;-74
2022/06/29 07:26:38;;;;;;;2.72;2.53;;;26.80;51.80;;;;;;5052793;28;20289;-74
2022/06/29 07:29:05;;;;;;;2.70;2.50;;;26.90;50.90;;;;;;5069244;28;20202;-75
2022/06/29 07:31:32;;;;;;;2.88;2.67;;;27.00;50.90;;;;;;5052112;28;20218;-74
2022/06/29 07:34:00;;;;;;;3.13;2.67;;;27.10;50.50;;;;;;5052280;28;20300;-75
2022/06/29 07:36:26;;;;;;;2.90;2.70;;;27.20;50.30;;;;;;5053720;28;20198;-74
2022/06/29 07:38:54;;;;;;;2.60;2.40;;;27.20;50.10;;;;;;5052135;28;20234;-74
2022/06/29 07:41:22;;;;;;;2.63;2.42;;;27.30;49.90;;;;;;5054782;28;20218;-74
2022/06/29 07:44:09;;;;;;;2.88;2.67;;;27.40;49.70;;;;;;5057626;28;20178;-74
2022/06/29 07:46:36;;;;;;;3.90;2.47;;;27.50;49.60;;;;;;5056659;28;20649;-74
2022/06/29 07:49:03;;;;;;;2.60;2.40;;;27.50;49.40;;;;;;5056307;28;20610;-75
2022/06/29 07:51:30;;;;;;;2.40;2.30;;;27.60;49.20;;;;;;5055976;28;20211;-74
2022/06/29 07:53:57;;;;;;;2.70;2.50;;;27.60;49.10;;;;;;5057379;28;20187;-74
2022/06/29 07:56:25;;;;;;;3.00;2.55;;;27.70;49.00;;;;;;5056275;28;20204;-74
2022/06/29 07:58:52;;;;;;;2.60;2.40;;;27.80;48.90;;;;;;5072772;28;20205;-74
2022/06/29 08:01:20;;;;;;;3.42;2.70;;;27.80;48.80;;;;;;5074101;28;20246;-74
2022/06/29 08:03:48;;;;;;;2.65;2.45;;;27.80;48.60;;;;;;5074278;28;20293;-74
2022/06/29 08:06:15;;;;;;;3.30;3.00;;;27.90;48.50;;;;;;5056211;28;20206;-74
2022/06/29 08:08:43;;;;;;;2.65;2.45;;;27.90;48.40;;;;;;5072693;28;20199;-74
2022/06/29 08:11:10;;;;;;;2.75;2.55;;;28.00;48.30;;;;;;5056220;28;20691;-74
2022/06/29 08:13:39;;;;;;;2.70;2.50;;;28.00;48.10;;;;;;5057234;28;20215;-74
2022/06/29 08:16:06;;;;;;;2.38;2.17;;;28.10;48.10;;;;;;5055927;28;20198;-74
2022/06/29 08:18:33;;;;;;;2.80;2.60;;;28.10;48.00;;;;;;5055966;28;20608;-75
2022/06/29 08:21:00;;;;;;;2.20;2.10;;;28.10;47.90;;;;;;5055713;28;20241;-75
2022/06/29 08:23:27;;;;;;;2.60;2.40;;;28.10;47.90;;;;;;5055606;28;20671;-75
2022/06/29 08:25:54;;;;;;;2.60;2.40;;;28.10;47.90;;;;;;5055938;28;20289;-74
2022/06/29 08:28:21;;;;;;;3.22;2.58;;;28.10;47.90;;;;;;5072201;28;20217;-74
2022/06/29 08:30:49;;;;;;;2.60;2.40;;;28.10;47.90;;;;;;5055311;28;20211;-74
2022/06/29 08:33:17;;;;;;;2.53;2.35;;;28.10;47.80;;;;;;5056880;28;20183;-75
2022/06/29 08:35:44;;;;;;;2.60;2.40;;;28.10;47.80;;;;;;5057106;28;20689;-75
2022/06/29 08:38:11;;;;;;;2.60;2.40;;;28.20;47.70;;;;;;5055227;28;20301;-74
2022/06/29 08:40:44;;;;;;;2.50;2.30;;;28.20;47.50;;;;;;5071772;28;20565;-75
2022/06/29 08:43:12;;;;;;;2.70;2.50;;;28.30;47.50;;;;;;5071924;28;20203;-74
2022/06/29 08:45:40;;;;;;;2.60;2.40;;;28.30;47.30;;;;;;5071868;28;20195;-75
2022/06/29 08:48:08;;;;;;;2.70;2.50;;;28.40;47.30;;;;;;5056269;28;20187;-75
2022/06/29 08:50:36;;;;;;;2.38;2.17;;;28.40;47.10;;;;;;5054826;28;20230;-74
2022/06/29 08:53:03;;;;;;;2.83;2.60;;;28.50;47.10;;;;;;5056020;28;20194;-75
2022/06/29 08:55:30;;;;;;;2.58;2.38;;;28.50;47.00;;;;;;5056130;28;20195;-74
2022/06/29 08:57:57;;;;;;;2.47;2.28;;;28.50;47.10;;;;;;5054950;28;20199;-75
2022/06/29 09:00:25;;;;;;;2.40;2.20;;;28.40;47.20;;;;;;5056583;28;20209;-75
2022/06/29 09:02:52;;;;;;;2.42;2.22;;;28.30;47.30;;;;;;5054943;28;20240;-74
2022/06/29 09:05:20;;;;;;;2.50;2.30;;;28.30;47.30;;;;;;5057117;28;20225;-74
2022/06/29 09:07:47;;;;;;;2.33;2.20;;;28.30;47.40;;;;;;5071559;28;20663;-74
2022/06/29 09:10:18;;;;;;;2.58;2.38;;;28.30;47.50;;;;;;5054623;28;20223;-75
2022/06/29 09:12:49;;;;;;;2.63;2.30;;;28.20;47.70;;;;;;5071635;28;20202;-74
2022/06/29 09:15:16;;;;;;;2.20;2.10;;;28.20;47.70;;;;;;5056255;28;20179;-75
2022/06/29 09:17:43;;;;;;;2.30;2.05;;;28.10;47.80;;;;;;5071313;28;20195;-75
2022/06/29 09:20:12;;;;;;;2.33;2.17;;;28.10;47.90;;;;;;5054420;28;20257;-75
2022/06/29 09:22:42;;;;;;;2.45;2.33;;;28.10;47.90;;;;;;5055743;28;20736;-76
2022/06/29 09:25:21;;;;;;;2.08;1.98;;;28.20;47.80;;;;;;5056017;28;20193;-75
2022/06/29 09:27:48;;;;;;;2.17;2.08;;;28.20;47.60;;;;;;5071087;28;20232;-75
2022/06/29 09:30:26;;;;;;;2.38;2.20;;;28.30;47.50;;;;;;5054298;28;20223;-75
2022/06/29 09:32:59;;;;;;;2.13;2.03;;;28.30;47.40;;;;;;5070942;28;20191;-75
2022/06/29 09:35:26;;;;;;;2.53;2.20;;;28.40;47.30;;;;;;5071549;28;20191;-75
2022/06/29 09:37:55;;;;;;;2.40;2.20;;;28.40;47.30;;;;;;5070850;28;20195;-75
2022/06/29 09:40:22;;;;;;;2.22;2.13;;;28.40;47.30;;;;;;5054093;28;20257;-75
2022/06/29 09:42:49;;;;;;;2.10;2.00;;;28.50;47.20;;;;;;5071072;28;20264;-75
2022/06/29 09:45:16;;;;;;;2.20;2.10;;;28.50;47.10;;;;;;5054077;28;20205;-75
2022/06/29 09:47:43;;;;;;;2.10;2.00;;;28.40;47.20;;;;;;5053976;28;20655;-75
2022/06/29 09:50:10;;;;;;;2.15;2.05;;;28.30;47.30;;;;;;5053802;28;20651;-75
2022/06/29 09:52:39;;;;;;;2.20;2.10;;;28.20;47.50;;;;;;5053709;28;20647;-75
2022/06/29 09:55:08;;;;;;;1.90;1.80;;;28.20;47.60;;;;;;5053774;28;20233;-75
2022/06/29 09:57:35;;;;;;;2.25;2.10;;;28.20;47.50;;;;;;5053853;28;20380;-75
2022/06/29 10:02:49;;;;;;;2.10;2.00;;;28.30;47.40;;;;;;5052840;28;20617;-75
2022/06/29 10:05:17;;;;;;;2.08;1.98;;;28.30;47.30;;;;;;5053613;28;20655;-75
2022/06/29 10:07:44;;;;;;;2.25;2.05;;;28.40;47.30;;;;;;5054687;28;20634;-75
2022/06/29 10:10:14;;;;;;;2.55;2.17;;;28.40;47.30;;;;;;5054723;28;20214;-75
2022/06/29 10:16:12;;;;;;;2.55;2.35;;;28.30;47.50;;;;;;5054661;28;20175;-75
2022/06/29 10:19:03;;;;;;;2.10;2.00;;;28.20;47.70;;;;;;5053286;28;20187;-76
2022/06/29 10:21:32;;;;;;;2.20;2.10;;;28.10;48.00;;;;;;5040488;28;20665;-75
2022/06/29 10:23:59;;;;;;;2.22;2.13;;;28.00;48.30;;;;;;5053249;28;20205;-75
2022/06/29 10:26:40;;;;;;;2.25;2.15;;;27.90;48.50;;;;;;5069705;28;20210;-75
2022/06/29 10:29:31;;;;;;;2.03;1.92;;;27.70;48.70;;;;;;5054519;28;20190;-75
2022/06/29 10:32:17;;;;;;;2.15;2.05;;;27.70;49.00;;;;;;5054296;28;20214;-75
2022/06/29 10:37:29;;;;;;;2.22;2.10;;;27.50;49.30;;;;;;5053058;28;20245;-75
2022/06/29 10:39:58;;;;;;;2.20;2.10;;;27.40;49.50;;;;;;5052928;28;20268;-75
2022/06/29 10:45:22;;;;;;;2.20;2.10;;;27.30;49.70;;;;;;5052816;28;20186;-75
2022/06/29 10:48:17;;;;;;;2.38;2.20;;;27.20;49.80;;;;;;5069530;28;20213;-75
2022/06/29 10:50:45;;;;;;;2.10;2.00;;;27.20;50.00;;;;;;5052804;28;20218;-75
2022/06/29 10:53:12;;;;;;;2.40;2.30;;;27.10;50.10;;;;;;5052722;28;20205;-75
2022/06/29 10:55:41;;;;;;;3.03;2.42;;;27.10;50.10;;;;;;5054131;28;20223;-75
2022/06/29 10:58:10;;;;;;;2.20;2.10;;;27.10;50.90;;;;;;5052733;28;20581;-75
2022/06/29 11:00:39;;;;;;;2.20;2.10;;;27.00;50.30;;;;;;5052495;28;20218;-75
2022/06/29 11:03:14;;;;;;;2.30;2.20;;;27.00;50.40;;;;;;5052948;28;20237;-75
2022/06/29 11:13:58;;;;;;;2.10;2.00;;;27.00;50.60;;;;;;5053496;28;20170;-75
2022/06/29 11:16:30;;;;;;;2.08;1.98;;;26.90;50.50;;;;;;5053884;28;20191;-75
2022/06/29 11:18:57;;;;;;;2.33;2.20;;;27.00;50.50;;;;;;5052290;28;20207;-75
2022/06/29 11:21:24;;;;;;;2.33;2.08;;;27.00;51.10;;;;;;5052062;28;20219;-75
2022/06/29 11:24:02;;;;;;;2.35;2.17;;;27.00;50.50;;;;;;5053434;28;20268;-75
2022/06/29 11:26:29;;;;;;;2.22;2.13;;;27.00;50.50;;;;;;5068892;28;20202;-75
2022/06/29 11:28:58;;;;;;;2.08;1.98;;;27.10;51.10;;;;;;5052192;28;20208;-75
2022/06/29 11:31:25;;;;;;;2.20;2.10;;;27.00;50.40;;;;;;5068753;28;20226;-75
2022/06/29 11:33:53;;;;;;;2.20;2.10;;;27.00;50.40;;;;;;5052187;28;20203;-75
2022/06/29 11:36:21;;;;;;;2.10;2.00;;;27.10;50.40;;;;;;5068974;28;20202;-75
2022/06/29 11:38:49;;;;;;;2.10;2.00;;;27.10;50.40;;;;;;5068826;28;20294;-75
2022/06/29 11:41:17;;;;;;;2.10;2.00;;;27.10;50.40;;;;;;5052093;28;20289;-75
2022/06/29 11:43:45;;;;;;;2.10;2.00;;;27.10;50.50;;;;;;5052077;28;20195;-75
2022/06/29 11:46:24;;;;;;;2.10;2.00;;;27.00;50.40;;;;;;5052581;28;20272;-75
2022/06/29 11:51:36;;;;;;;2.10;2.00;;;27.00;50.50;;;;;;5051902;28;20215;-75
2022/06/29 11:54:06;;;;;;;1.90;1.80;;;27.00;50.50;;;;;;5052010;28;20740;-75
2022/06/29 11:56:33;;;;;;;2.13;2.03;;;27.00;50.60;;;;;;5051887;28;20229;-75
2022/06/29 11:59:04;;;;;;;2.17;2.08;;;27.00;50.60;;;;;;5068675;28;20202;-75
2022/06/29 12:01:32;;;;;;;2.08;1.90;;;27.00;50.70;;;;;;5051741;28;20222;-75
2022/06/29 12:04:00;;;;;;;2.17;2.08;;;27.00;50.70;;;;;;5068527;28;20198;-75
2022/06/29 12:06:29;;;;;;;2.13;2.03;;;27.00;50.70;;;;;;5053306;28;20183;-75
2022/06/29 12:08:57;;;;;;;2.15;2.05;;;27.00;50.70;;;;;;5068757;28;20198;-75
2022/06/29 12:11:24;;;;;;;1.85;1.75;;;27.00;50.70;;;;;;5068638;28;20591;-74
2022/06/29 12:13:51;;;;;;;2.10;2.00;;;27.10;50.70;;;;;;5051732;28;20293;-75
2022/06/29 12:16:18;;;;;;;2.00;1.90;;;27.10;50.60;;;;;;5051739;28;20218;-75
2022/06/29 12:18:46;;;;;;;2.30;2.20;;;27.10;50.60;;;;;;5051787;28;20187;-75
2022/06/29 12:21:13;;;;;;;2.30;2.10;;;27.10;50.60;;;;;;5052842;28;20217;-75
2022/06/29 12:23:40;;;;;;;2.00;1.90;;;27.10;50.60;;;;;;5052935;28;20217;-75
2022/06/29 12:26:08;;;;;;;1.92;1.83;;;27.10;50.60;;;;;;5053540;28;20205;-75
2022/06/29 12:28:37;;;;;;;1.90;1.80;;;27.00;50.70;;;;;;5072046;28;20194;-75
2022/06/29 12:31:04;;;;;;;2.00;1.90;;;27.10;50.80;;;;;;5071992;28;20228;-75
2022/06/29 12:33:31;;;;;;;1.88;1.77;;;27.00;50.80;;;;;;5056505;28;20589;-75
2022/06/29 12:36:00;;;;;;;2.03;1.92;;;27.00;50.90;;;;;;5055188;28;20199;-75
2022/06/29 12:38:27;;;;;;;1.98;1.88;;;27.00;50.90;;;;;;5055230;28;20202;-75
2022/06/29 12:40:55;;;;;;;1.83;1.73;;;27.00;51.00;;;;;;5055414;28;20218;-76
2022/06/29 12:43:22;;;;;;;1.90;1.80;;;27.00;51.00;;;;;;5055105;28;20573;-74
2022/06/29 12:45:49;;;;;;;1.98;1.88;;;27.00;51.00;;;;;;5055118;28;20293;-75
2022/06/29 12:48:17;;;;;;;2.40;2.20;;;27.00;51.00;;;;;;5095329;22;20746;-66
2022/06/29 12:50:44;;;;;;;1.90;1.80;;;26.90;50.90;;;;;;5055346;28;20203;-66
2022/06/29 12:53:12;;;;;;;1.85;1.75;;;26.90;50.90;;;;;;5056080;28;20571;-66
2022/06/29 12:55:39;;;;;;;2.13;2.03;;;26.90;51.10;;;;;;5056547;28;20197;-66
2022/06/29 12:58:06;;;;;;;2.92;2.58;;;26.90;51.40;;;;;;5055345;28;20219;-66
2022/06/29 13:00:33;;;;;;;2.72;2.22;;;26.90;52.00;;;;;;5055058;28;20280;-66
2022/06/29 13:03:00;;;;;;;2.80;2.50;;;26.90;52.00;;;;;;5071881;28;20691;-66
2022/06/29 13:05:27;;;;;;;2.78;2.40;;;27.00;52.10;;;;;;5056017;28;20211;-66
2022/06/29 13:07:54;;;;;;;2.85;2.60;;;27.00;52.30;;;;;;5056403;28;20242;-66
2022/06/29 13:10:23;;;;;;;3.25;3.05;;;27.00;52.30;;;;;;5055264;28;20191;-67
2022/06/29 13:12:50;;;;;;;3.03;2.83;;;27.00;52.50;;;;;;5071444;28;20199;-66
2022/06/29 13:15:17;;;;;;;2.92;2.58;;;27.00;52.50;;;;;;5057572;28;20245;-67
2022/06/29 13:17:44;;;;;;;3.00;2.78;;;27.00;52.50;;;;;;5071941;28;20222;-66
2022/06/29 13:20:12;;;;;;;2.65;2.45;;;27.00;52.50;;;;;;5054949;28;20636;-66
2022/06/29 13:22:39;;;;;;;3.22;2.90;;;27.00;52.60;;;;;;5054277;28;20699;-66
2022/06/29 13:25:08;;;;;;;2.80;2.60;;;27.00;52.50;;;;;;5055808;28;20199;-67
2022/06/29 13:27:37;;;;;;;2.78;2.40;;;27.10;52.70;;;;;;5070933;28;20218;-66
2022/06/29 13:30:06;;;;;;;2.67;2.47;;;27.00;52.60;;;;;;5054480;28;20199;-66
2022/06/29 13:32:33;;;;;;;4.13;2.70;;;27.00;52.60;;;;;;5054108;28;20206;-66
2022/06/29 13:35:00;;;;;;;2.85;2.55;;;27.00;52.50;;;;;;5055406;28;20198;-66